createdAt,value
2023-03-22T00:01:50.121Z,9.80
2023-03-22T00:03:53.453Z,12.50
2023-03-22T00:05:59.385Z,10.07
2023-03-22T00:08:05.663Z,8.53
2023-03-22T00:10:09.594Z,8.07
2023-03-22T00:12:13.982Z,9.47
2023-03-22T00:14:17.057Z,8.40
2023-03-22T00:16:20.439Z,8.80
2023-03-22T00:18:23.483Z,9.10
2023-03-22T00:20:26.517Z,11.03
2023-03-22T00:22:29.556Z,7.90
2023-03-22T00:24:32.819Z,7.77
2023-03-22T00:26:35.893Z,8.70
2023-03-22T00:28:41.050Z,10.03
2023-03-22T00:30:44.827Z,11.20
2023-03-22T00:32:48.143Z,8.80
2023-03-22T00:34:51.351Z,8.77
2023-03-22T00:36:56.245Z,9.00
2023-03-22T00:39:01.931Z,11.10
2023-03-22T00:41:09.372Z,9.43
2023-03-22T00:43:13.331Z,9.23
2023-03-22T00:45:17.937Z,8.47
2023-03-22T00:47:21.060Z,9.50
2023-03-22T00:49:25.530Z,9.03
2023-03-22T00:51:28.636Z,7.47
2023-03-22T00:53:32.910Z,9.53
2023-03-22T00:55:36.030Z,7.40
2023-03-22T00:57:39.316Z,9.17
2023-03-22T00:59:43.045Z,8.10
2023-03-22T01:01:47.503Z,7.77
2023-03-22T01:03:51.032Z,7.43
2023-03-22T01:05:56.384Z,7.20
2023-03-22T01:08:02.729Z,7.20
2023-03-22T01:10:06.771Z,7.60
2023-03-22T01:12:09.814Z,6.17
2023-03-22T01:14:13.910Z,6.93
2023-03-22T01:16:18.249Z,11.00
2023-03-22T01:18:22.772Z,7.33
2023-03-22T01:20:25.993Z,6.73
2023-03-22T01:22:29.069Z,8.00
2023-03-22T01:24:32.423Z,6.50
2023-03-22T01:26:35.738Z,6.50
2023-03-22T01:28:40.624Z,6.60
2023-03-22T01:30:43.879Z,7.90
2023-03-22T01:32:46.894Z,7.30
2023-03-22T01:34:52.237Z,9.10
2023-03-22T01:36:56.378Z,8.87
2023-03-22T01:38:59.548Z,7.93
2023-03-22T01:41:02.628Z,5.00
2023-03-22T01:43:13.186Z,6.00
2023-03-22T01:45:38.152Z,6.73
2023-03-22T01:47:43.101Z,7.40
2023-03-22T01:49:46.307Z,5.27
2023-03-22T01:51:52.822Z,7.10
2023-03-22T01:54:15.165Z,5.43
2023-03-22T01:56:19.562Z,7.60
2023-03-22T01:58:22.726Z,7.43
2023-03-22T02:00:31.017Z,5.07
2023-03-22T02:02:54.378Z,6.23
2023-03-22T02:05:04.257Z,8.70
2023-03-22T02:07:15.237Z,6.27
2023-03-22T02:09:22.042Z,8.07
2023-03-22T02:11:29.648Z,7.73
2023-03-22T02:14:01.196Z,6.97
2023-03-22T02:16:31.179Z,6.57
2023-03-22T02:18:49.646Z,5.10
2023-03-22T02:21:17.772Z,10.23
2023-03-22T02:23:49.894Z,5.40
2023-03-22T02:26:14.101Z,6.13
2023-03-22T02:28:25.888Z,8.80
2023-03-22T02:31:19.901Z,7.07
2023-03-22T02:33:50.542Z,5.90
2023-03-22T02:36:16.566Z,6.90
2023-03-22T02:38:58.668Z,4.73
2023-03-22T02:41:10.427Z,5.60
2023-03-22T02:43:17.355Z,7.80
2023-03-22T02:45:29.113Z,5.63
2023-03-22T02:47:39.519Z,5.87
2023-03-22T02:49:47.752Z,7.50
2023-03-22T02:51:55.037Z,6.97
2023-03-22T02:54:04.863Z,7.20
2023-03-22T02:56:09.771Z,8.23
2023-03-22T02:58:15.659Z,5.70
2023-03-22T03:00:20.921Z,6.60
2023-03-22T03:02:24.913Z,6.73
2023-03-22T03:04:31.100Z,6.53
2023-03-22T03:06:39.911Z,5.07
2023-03-22T03:08:44.088Z,9.90
2023-03-22T03:10:49.094Z,8.50
2023-03-22T03:12:52.431Z,8.63
2023-03-22T03:14:55.818Z,7.00
2023-03-22T03:17:08.685Z,6.17
2023-03-22T03:19:20.284Z,7.73
2023-03-22T03:21:32.730Z,9.87
2023-03-22T03:23:47.076Z,14.30
2023-03-22T03:25:58.921Z,8.13
2023-03-22T03:28:06.437Z,7.83
2023-03-22T03:30:13.332Z,7.33
2023-03-22T03:32:25.561Z,8.95
2023-03-22T03:34:31.474Z,11.63
2023-03-22T03:36:37.850Z,10.00
2023-03-22T03:38:45.618Z,7.10
2023-03-22T03:40:51.730Z,6.40
2023-03-22T03:42:57.155Z,7.07
2023-03-22T03:45:00.998Z,5.07
2023-03-22T03:47:04.789Z,11.33
2023-03-22T03:49:08.925Z,6.82
2023-03-22T03:51:12.975Z,7.33
2023-03-22T03:53:16.418Z,6.72
2023-03-22T03:55:19.659Z,5.95
2023-03-22T03:57:24.043Z,7.00
2023-03-22T03:59:27.150Z,6.90
2023-03-22T04:01:31.155Z,6.78
2023-03-22T04:03:50.584Z,6.93
2023-03-22T04:06:09.956Z,6.53
2023-03-22T04:08:16.934Z,7.13
2023-03-22T04:10:20.062Z,7.57
2023-03-22T04:12:24.628Z,7.43
2023-03-22T04:14:46.227Z,9.18
2023-03-22T04:16:57.572Z,6.15
2023-03-22T04:19:01.249Z,6.97
2023-03-22T04:21:05.578Z,6.20
2023-03-22T04:23:16.444Z,7.53
2023-03-22T04:25:22.890Z,7.80
2023-03-22T04:27:36.361Z,7.00
2023-03-22T04:29:48.648Z,6.10
2023-03-22T04:32:11.707Z,7.70
2023-03-22T04:34:18.199Z,9.45
2023-03-22T04:36:31.164Z,8.63
2023-03-22T04:38:50.107Z,9.23
2023-03-22T04:40:57.946Z,8.00
2023-03-22T04:43:13.744Z,5.88
2023-03-22T04:45:29.321Z,6.60
2023-03-22T04:47:36.556Z,6.97
2023-03-22T04:49:42.628Z,6.70
2023-03-22T04:51:46.250Z,8.60
2023-03-22T04:54:18.594Z,7.20
2023-03-22T04:56:22.280Z,7.18
2023-03-22T04:58:29.105Z,9.05
2023-03-22T05:00:32.199Z,6.60
2023-03-22T05:02:41.089Z,8.43
2023-03-22T05:04:50.060Z,10.82
2023-03-22T05:07:15.326Z,8.65
2023-03-22T05:09:24.269Z,8.82
2023-03-22T05:11:29.426Z,6.82
2023-03-22T05:13:47.314Z,7.63
2023-03-22T05:15:51.867Z,7.60
2023-03-22T05:17:59.220Z,10.70
2023-03-22T05:20:09.252Z,8.45
2023-03-22T05:22:14.423Z,7.57
2023-03-22T05:24:26.339Z,8.40
2023-03-22T05:26:29.507Z,7.20
2023-03-22T05:28:32.790Z,7.25
2023-03-22T05:30:44.004Z,10.25
2023-03-22T05:33:06.098Z,7.80
2023-03-22T05:35:17.347Z,7.90
2023-03-22T05:37:25.900Z,9.00
2023-03-22T05:39:33.368Z,9.75
2023-03-22T05:41:37.060Z,9.13
2023-03-22T05:43:40.826Z,10.77
2023-03-22T05:45:45.892Z,9.10
2023-03-22T05:48:08.359Z,11.63
2023-03-22T05:50:14.012Z,9.68
2023-03-22T05:52:17.078Z,10.38
2023-03-22T05:54:30.373Z,11.02
2023-03-22T05:56:34.473Z,9.48
2023-03-22T05:58:42.691Z,9.25
2023-03-22T06:00:51.473Z,9.63
2023-03-22T06:02:57.303Z,7.33
2023-03-22T06:05:00.665Z,12.25
2023-03-22T06:07:03.776Z,7.68
2023-03-22T06:09:17.637Z,8.10
2023-03-22T06:11:24.711Z,8.48
2023-03-22T06:13:28.687Z,8.63
2023-03-22T06:15:31.985Z,6.95
2023-03-22T06:17:40.751Z,9.02
2023-03-22T06:19:46.251Z,8.43
2023-03-22T06:21:51.887Z,9.80
2023-03-22T06:23:57.210Z,7.57
2023-03-22T06:26:01.248Z,10.57
2023-03-22T06:28:06.954Z,10.50
2023-03-22T06:30:13.057Z,9.07
2023-03-22T06:32:33.711Z,7.10
2023-03-22T06:34:38.657Z,9.15
2023-03-22T06:36:42.460Z,9.40
2023-03-22T06:38:49.773Z,7.57
2023-03-22T06:40:53.629Z,9.00
2023-03-22T06:42:56.779Z,9.13
2023-03-22T06:44:59.910Z,8.27
2023-03-22T06:47:06.966Z,10.63
2023-03-22T06:49:41.209Z,8.47
2023-03-22T06:51:45.847Z,7.67
2023-03-22T06:53:49.583Z,8.93
2023-03-22T06:55:55.231Z,7.37
2023-03-22T06:58:00.226Z,12.80
2023-03-22T07:00:05.088Z,7.70
2023-03-22T07:02:08.330Z,8.27
2023-03-22T07:04:11.442Z,9.20
2023-03-22T07:06:17.008Z,7.20
2023-03-22T07:08:24.356Z,8.80
2023-03-22T07:10:28.928Z,10.93
2023-03-22T07:12:32.526Z,9.13
2023-03-22T07:14:40.440Z,8.23
2023-03-22T07:16:56.880Z,9.53
2023-03-22T07:19:01.913Z,13.00
2023-03-22T07:21:05.421Z,7.87
2023-03-22T07:23:11.544Z,9.07
2023-03-22T07:25:22.304Z,19.43
2023-03-22T07:27:31.559Z,21.10
2023-03-22T07:29:35.567Z,13.10
2023-03-22T07:31:40.069Z,9.63
2023-03-22T07:33:48.624Z,16.10
2023-03-22T07:35:53.874Z,14.40
2023-03-22T07:37:56.974Z,12.33
2023-03-22T07:40:08.470Z,10.73
2023-03-22T07:42:12.684Z,11.00
2023-03-22T07:44:18.916Z,10.63
2023-03-22T07:46:38.348Z,11.60
2023-03-22T07:48:59.839Z,17.83
2023-03-22T07:51:21.429Z,13.30
2023-03-22T07:53:24.787Z,11.43
2023-03-22T07:55:29.370Z,10.90
2023-03-22T07:57:32.438Z,10.40
2023-03-22T07:59:39.497Z,8.77
2023-03-22T08:01:43.600Z,7.87
2023-03-22T08:04:06.152Z,9.17
2023-03-22T08:06:25.742Z,7.37
2023-03-22T08:08:28.783Z,7.27
2023-03-22T08:10:33.483Z,8.30
2023-03-22T08:12:37.256Z,6.80
2023-03-22T08:15:00.584Z,6.50
2023-03-22T08:17:04.796Z,7.00
2023-03-22T08:19:07.797Z,6.50
2023-03-22T08:21:13.302Z,8.57
2023-03-22T08:23:17.718Z,7.07
2023-03-22T08:25:42.419Z,6.17
2023-03-22T08:27:47.272Z,6.30
2023-03-22T08:29:50.614Z,6.70
2023-03-22T08:31:54.398Z,5.63
2023-03-22T08:33:57.527Z,5.53
2023-03-22T08:36:08.096Z,6.03
2023-03-22T08:38:17.231Z,6.10
2023-03-22T08:40:24.036Z,5.60
2023-03-22T08:42:32.349Z,6.43
2023-03-22T08:44:35.515Z,9.03
2023-03-22T08:46:39.769Z,5.10
2023-03-22T08:48:51.012Z,6.60
2023-03-22T08:51:06.728Z,4.90
2023-03-22T08:53:28.610Z,4.20
2023-03-22T08:55:48.390Z,6.33
2023-03-22T08:58:10.147Z,4.10
2023-03-22T09:00:25.526Z,5.25
2023-03-22T09:02:45.189Z,5.20
2023-03-22T09:04:48.680Z,3.77
2023-03-22T09:06:51.761Z,4.47
2023-03-22T09:08:55.620Z,6.53
2023-03-22T09:10:59.999Z,3.60
2023-03-22T09:13:05.137Z,3.43
2023-03-22T09:15:10.788Z,3.03
2023-03-22T09:17:20.633Z,3.30
2023-03-22T09:19:24.767Z,3.03
2023-03-22T09:21:29.734Z,3.90
2023-03-22T09:23:43.455Z,4.57
2023-03-22T09:25:48.057Z,5.10
2023-03-22T09:27:55.202Z,5.50
2023-03-22T09:29:58.489Z,3.70
2023-03-22T09:32:03.052Z,2.67
2023-03-22T09:34:09.516Z,3.50
2023-03-22T09:36:12.969Z,2.57
2023-03-22T09:38:17.231Z,3.83
2023-03-22T09:40:23.745Z,3.10
2023-03-22T09:42:33.816Z,2.47
2023-03-22T09:44:42.779Z,5.33
2023-03-22T09:46:53.781Z,4.00
2023-03-22T09:48:59.214Z,3.30
2023-03-22T09:51:04.179Z,2.83
2023-03-22T09:53:10.534Z,2.93
2023-03-22T09:55:19.837Z,2.60
2023-03-22T09:57:27.508Z,3.10
2023-03-22T09:59:35.239Z,2.70
2023-03-22T10:01:43.369Z,3.10
2023-03-22T10:04:11.374Z,4.20
2023-03-22T10:06:17.781Z,2.77
2023-03-22T10:08:47.800Z,2.40
2023-03-22T10:10:52.676Z,2.40
2023-03-22T10:13:01.112Z,3.50
2023-03-22T10:15:07.020Z,3.93
2023-03-22T10:17:13.350Z,3.20
2023-03-22T10:19:21.195Z,3.00
2023-03-22T10:21:24.410Z,3.10
2023-03-22T10:23:31.821Z,2.60
2023-03-22T10:25:38.018Z,3.40
2023-03-22T10:27:41.593Z,3.00
2023-03-22T10:29:47.268Z,3.20
2023-03-22T10:31:50.637Z,2.53
2023-03-22T10:33:57.032Z,2.60
2023-03-22T10:36:02.213Z,4.93
2023-03-22T10:38:06.549Z,2.20
2023-03-22T10:40:16.139Z,2.47
2023-03-22T10:42:21.772Z,4.73
2023-03-22T10:44:27.109Z,2.70
2023-03-22T10:46:33.846Z,1.80
2023-03-22T10:48:39.392Z,3.40
2023-03-22T10:50:44.650Z,5.47
2023-03-22T10:52:51.151Z,3.90
2023-03-22T10:54:54.268Z,2.17
2023-03-22T10:56:57.529Z,2.67
2023-03-22T10:59:00.579Z,2.03
2023-03-22T11:01:07.333Z,2.60
2023-03-22T11:03:18.805Z,3.47
2023-03-22T11:05:24.693Z,3.17
2023-03-22T11:07:31.458Z,1.70
2023-03-22T11:09:35.830Z,3.50
2023-03-22T11:11:46.118Z,2.20
2023-03-22T11:13:55.621Z,3.93
2023-03-22T11:16:02.514Z,2.53
2023-03-22T11:18:07.735Z,2.83
2023-03-22T11:20:16.988Z,2.37
2023-03-22T11:22:24.900Z,2.27
2023-03-22T11:24:29.446Z,2.93
2023-03-22T11:26:38.819Z,3.40
2023-03-22T11:28:49.021Z,3.17
2023-03-22T11:31:01.136Z,3.77
2023-03-22T11:33:18.597Z,2.33
2023-03-22T11:35:23.858Z,2.93
2023-03-22T11:37:26.969Z,2.40
2023-03-22T11:39:30.784Z,3.63
2023-03-22T11:41:36.467Z,2.53
2023-03-22T11:43:42.291Z,2.83
2023-03-22T11:45:46.002Z,2.13
2023-03-22T11:47:49.210Z,2.93
2023-03-22T11:49:54.541Z,3.23
2023-03-22T11:51:57.602Z,2.20
2023-03-22T11:54:06.290Z,3.00
2023-03-22T11:56:12.092Z,5.57
2023-03-22T11:58:28.054Z,2.27
2023-03-22T12:00:33.463Z,2.70
2023-03-22T12:02:40.092Z,2.33
2023-03-22T12:04:45.441Z,2.87
2023-03-22T12:06:49.043Z,2.57
2023-03-22T12:08:55.323Z,2.20
2023-03-22T12:11:03.277Z,2.30
2023-03-22T12:13:10.841Z,1.93
2023-03-22T12:15:19.329Z,3.50
2023-03-22T12:17:30.256Z,2.20
2023-03-22T12:19:48.422Z,3.40
2023-03-22T12:21:52.916Z,2.77
2023-03-22T12:24:02.438Z,2.50
2023-03-22T12:26:08.180Z,3.93
2023-03-22T12:28:14.732Z,3.37
2023-03-22T12:30:21.530Z,2.00
2023-03-22T12:32:27.559Z,2.37
2023-03-22T12:34:37.235Z,2.20
2023-03-22T12:36:42.940Z,3.33
2023-03-22T12:38:48.674Z,5.10
2023-03-22T12:40:52.876Z,3.83
2023-03-22T12:43:07.309Z,3.00
2023-03-22T12:45:14.228Z,2.57
2023-03-22T12:47:23.973Z,2.90
2023-03-22T12:49:29.875Z,3.20
2023-03-22T12:51:32.901Z,3.33
2023-03-22T12:53:42.336Z,4.07
2023-03-22T12:55:46.626Z,2.70
2023-03-22T12:57:52.388Z,2.57
2023-03-22T12:59:57.695Z,4.80
2023-03-22T13:02:04.826Z,2.60
2023-03-22T13:04:50.896Z,3.30
2023-03-22T13:06:57.506Z,3.23
2023-03-22T13:09:18.929Z,2.30
2023-03-22T13:11:25.617Z,2.40
2023-03-22T13:13:42.417Z,5.23
2023-03-22T13:16:00.872Z,2.73
2023-03-22T13:18:04.453Z,4.07
2023-03-22T13:20:30.860Z,2.27
2023-03-22T13:23:01.484Z,2.27
2023-03-22T13:25:17.180Z,1.90
2023-03-22T13:27:20.468Z,2.50
2023-03-22T13:29:25.423Z,2.40
2023-03-22T13:31:38.819Z,2.30
2023-03-22T13:33:42.076Z,1.80
2023-03-22T13:35:51.285Z,2.03
2023-03-22T13:37:55.408Z,4.00
2023-03-22T13:40:02.900Z,1.80
2023-03-22T13:42:17.066Z,1.70
2023-03-22T13:44:22.419Z,1.90
2023-03-22T13:46:46.728Z,2.43
2023-03-22T13:48:56.139Z,2.50
2023-03-22T13:51:10.693Z,3.27
2023-03-22T13:53:17.085Z,1.87
2023-03-22T13:55:42.832Z,1.60
2023-03-22T13:57:49.239Z,2.20
2023-03-22T14:00:12.164Z,2.07
2023-03-22T14:02:19.497Z,2.40
2023-03-22T14:04:26.310Z,1.70
2023-03-22T14:06:33.773Z,4.50
2023-03-22T14:08:37.937Z,2.30
2023-03-22T14:10:43.382Z,1.90
2023-03-22T14:12:50.987Z,1.73
2023-03-22T14:14:57.417Z,2.10
2023-03-22T14:17:04.847Z,2.27
2023-03-22T14:19:09.929Z,2.50
2023-03-22T14:21:15.114Z,2.73
